Time;durP1;ratioP1;P1;durP2;ratioP2;P2;SDS_P1;SDS_P2;PMS_P1;PMS_P2;Temp;Humidity;BMP_temperature;BMP_pressure;BME280_temperature;BME280_humidity;BME280_pressure;Samples;Min_cycle;Max_cycle;Signal;HPM_P1;HPM_P2
2022/01/16 00:04:06;;;;;;;23.27;17.13;;;;;;;13.63;46.70;100478.78;5098960;28;20075;-86
2022/01/16 00:06:42;;;;;;;22.75;17.38;;;;;;;13.62;46.42;100477.03;5097741;28;20024;-85
2022/01/16 00:09:08;;;;;;;20.80;16.73;;;;;;;13.66;46.68;100489.22;5100696;28;20035;-87
2022/01/16 00:11:37;;;;;;;22.95;17.92;;;;;;;13.66;46.58;100477.88;5097804;28;20024;-86
2022/01/16 00:14:04;;;;;;;21.23;17.00;;;;;;;13.60;46.68;100463.06;5098841;28;20023;-85
2022/01/16 00:16:31;;;;;;;23.67;18.15;;;;;;;13.61;46.64;100438.56;5098730;28;20415;-85
2022/01/16 00:18:58;;;;;;;21.30;17.02;;;;;;;13.62;46.60;100465.69;5098819;28;20024;-85
2022/01/16 00:21:27;;;;;;;21.02;17.17;;;;;;;13.66;46.47;100467.38;5097496;28;20093;-87
2022/01/16 00:23:54;;;;;;;21.88;16.17;;;;;;;13.62;46.56;100439.44;5097067;28;20039;-86
2022/01/16 00:26:22;;;;;;;22.67;16.58;;;;;;;13.61;46.28;100449.06;5097174;28;20066;-86
2022/01/16 00:28:49;;;;;;;20.80;16.98;;;;;;;13.66;46.39;100460.34;5096123;28;20460;-87
2022/01/16 00:31:20;;;;;;;21.80;16.85;;;;;;;13.61;46.66;100459.56;5097933;28;20093;-87
2022/01/16 00:33:46;;;;;;;23.25;17.05;;;;;;;13.63;46.27;100449.94;5097283;28;20028;-88
2022/01/16 00:36:17;;;;;;;21.25;16.65;;;;;;;13.62;46.41;100445.56;5097125;28;20032;-88
2022/01/16 00:38:44;;;;;;;21.33;17.40;;;;;;;13.60;46.35;100468.31;5096752;28;20103;-87
2022/01/16 00:41:14;;;;;;;21.48;16.55;;;;;;;13.61;46.28;100461.31;5097669;28;20107;-86
2022/01/16 00:43:40;;;;;;;19.58;14.98;;;;;;;13.58;46.41;100512.06;5097546;28;20433;-87
2022/01/16 00:46:06;;;;;;;21.05;16.27;;;;;;;13.62;46.25;100477.03;5097192;28;20020;-88
2022/01/16 00:48:32;;;;;;;21.20;16.73;;;;;;;13.59;46.23;100513.78;5096462;28;20040;-87
2022/01/16 00:50:58;;;;;;;22.33;16.95;;;;;;;13.58;46.38;100470.09;5097424;28;20020;-85
2022/01/16 00:53:24;;;;;;;23.85;17.38;;;;;;;13.58;46.29;100417.66;5097235;28;20126;-85
2022/01/16 00:55:49;;;;;;;21.40;16.35;;;;;;;13.58;46.48;100396.66;5096950;28;20066;-87
2022/01/16 00:58:15;;;;;;;23.30;17.23;;;;;;;13.56;46.50;100415.03;5097761;28;20052;-86
2022/01/16 01:00:41;;;;;;;22.40;17.73;;;;;;;13.59;46.36;100423.75;5098018;28;20059;-85
2022/01/16 01:03:06;;;;;;;22.23;16.88;;;;;;;13.61;46.13;100422.84;5097781;28;20081;-88
2022/01/16 01:05:34;;;;;;;20.80;17.92;;;;;;;13.60;46.39;100436.84;5098785;28;20027;-85
2022/01/16 01:08:02;;;;;;;21.83;16.52;;;;;;;13.60;46.12;100457.81;5096676;28;20023;-86
2022/01/16 01:10:32;;;;;;;23.48;16.63;;;;;;;13.58;46.29;100463.97;5097170;28;20024;-87
2022/01/16 01:13:08;;;;;;;20.65;16.30;;;;;;;13.59;46.23;100477.06;5097422;28;20365;-87
2022/01/16 01:15:44;;;;;;;23.80;17.08;;;;;;;13.61;46.07;100491.03;5096608;28;20020;-86
2022/01/16 01:18:10;;;;;;;21.50;16.75;;;;;;;13.60;46.23;100480.56;5097201;28;20031;-85
2022/01/16 01:20:40;;;;;;;21.42;16.77;;;;;;;13.58;46.28;100483.22;5096349;28;20036;-87
2022/01/16 01:23:06;;;;;;;21.27;16.50;;;;;;;13.61;46.22;100501.50;5097274;28;20051;-85
2022/01/16 01:25:31;;;;;;;21.95;16.83;;;;;;;13.60;46.13;100520.75;5096295;28;20196;-87
2022/01/16 01:27:57;;;;;;;22.10;16.45;;;;;;;13.62;46.34;100491.91;5096411;28;20024;-87
2022/01/16 01:30:24;;;;;;;21.67;17.02;;;;;;;13.59;46.13;100505.03;5096613;28;20028;-86
2022/01/16 01:32:53;;;;;;;21.35;17.35;;;;;;;13.61;46.00;100509.38;5096452;28;20034;-87
2022/01/16 01:35:19;;;;;;;21.83;16.58;;;;;;;13.58;46.17;100527.78;5096683;28;20427;-85
2022/01/16 01:37:46;;;;;;;19.92;16.45;;;;;;;13.58;46.06;100522.56;5097234;28;20024;-84
2022/01/16 01:40:15;;;;;;;22.85;17.92;;;;;;;13.54;46.16;100526.97;5098897;28;20020;-86
2022/01/16 01:42:49;;;;;;;21.67;16.38;;;;;;;13.56;46.29;100521.69;5096458;28;20035;-84
2022/01/16 01:51:06;;;;;;;21.92;17.48;;;;;;;13.53;46.15;100540.09;5096470;28;20476;-86
2022/01/16 01:53:32;;;;;;;21.10;16.73;;;;;;;13.56;46.25;100555.78;5095635;28;20035;-86
2022/01/16 01:55:58;;;;;;;22.90;17.58;;;;;;;13.54;46.14;100552.31;5095285;28;20027;-86
2022/01/16 01:58:24;;;;;;;22.38;17.35;;;;;;;13.52;46.21;100564.59;5095891;28;20103;-87
2022/01/16 02:00:50;;;;;;;20.77;17.50;;;;;;;13.54;46.14;100568.06;5100497;28;20353;-87
2022/01/16 02:05:47;;;;;;;20.67;16.60;;;;;;;13.53;46.04;100550.59;5096036;28;20063;-87
2022/01/16 02:08:13;;;;;;;22.05;18.30;;;;;;;13.52;46.11;100554.94;5094974;28;20059;-88
2022/01/16 02:10:40;;;;;;;20.83;16.48;;;;;;;13.49;46.06;100557.63;5096342;28;20031;-87
2022/01/16 02:13:09;;;;;;;21.10;17.65;;;;;;;13.50;45.92;100540.13;5095245;28;20034;-87
2022/01/16 02:34:40;;;;;;;21.15;16.40;;;;;;;13.49;46.01;100556.75;5095783;28;20093;-87
2022/01/16 02:37:09;;;;;;;19.80;15.75;;;;;;;13.47;46.28;100550.66;5095628;28;20096;-87
2022/01/16 02:39:37;;;;;;;18.98;15.32;;;;;;;13.51;45.75;100547.13;5095294;28;20020;-86
2022/01/16 02:42:08;;;;;;;19.75;15.63;;;;;;;13.51;46.02;100536.63;5095990;28;20028;-87
2022/01/16 02:44:43;;;;;;;19.73;16.30;;;;;;;13.49;46.08;100539.28;5094330;28;20020;-88
2022/01/16 02:47:14;;;;;;;19.30;15.65;;;;;;;13.47;46.02;100537.56;5095109;28;20075;-87
2022/01/16 02:49:41;;;;;;;21.63;16.42;;;;;;;13.49;46.14;100530.53;5093812;28;20019;-87
2022/01/16 02:52:12;;;;;;;20.33;15.23;;;;;;;13.48;46.05;100536.66;5093787;28;20020;-86
2022/01/16 02:54:40;;;;;;;16.98;14.23;;;;;;;13.51;46.03;100547.13;5094497;28;20035;-87
2022/01/16 02:57:09;;;;;;;18.42;15.60;;;;;;;13.46;46.13;100548.91;5096321;28;20381;-86
2022/01/16 02:59:37;;;;;;;21.40;15.95;;;;;;;13.49;45.89;100544.50;5095218;28;20103;-87
2022/01/16 03:02:03;;;;;;;17.38;14.95;;;;;;;13.55;45.79;100551.44;5095060;28;20028;-88
2022/01/16 03:04:29;;;;;;;20.48;15.30;;;;;;;13.51;45.89;100552.38;5094266;28;20031;-87
2022/01/16 03:06:58;;;;;;;17.35;14.52;;;;;;;13.50;45.97;100551.50;5094156;28;20035;-87
2022/01/16 03:09:24;;;;;;;19.05;14.95;;;;;;;13.51;45.77;100547.13;5094168;28;20031;-88
2022/01/16 03:11:50;;;;;;;17.15;14.68;;;;;;;13.51;45.99;100547.13;5094443;28;20032;-87
2022/01/16 03:14:21;;;;;;;19.23;15.43;;;;;;;13.49;45.83;100539.28;5094410;28;20032;-85
2022/01/16 03:16:51;;;;;;;19.95;15.10;;;;;;;13.51;46.02;100547.13;5094255;28;20169;-86
2022/01/16 03:22:04;;;;;;;17.88;14.52;;;;;;;13.48;46.09;100540.16;5095843;28;20035;-88
2022/01/16 03:24:37;;;;;;;17.42;13.73;;;;;;;13.47;46.16;100537.56;5095387;28;20020;-88
2022/01/16 03:27:06;;;;;;;15.93;14.23;;;;;;;13.47;46.20;100529.69;5094242;28;20024;-86
2022/01/16 03:29:32;;;;;;;18.67;14.27;;;;;;;13.49;46.15;100522.66;5094365;28;20034;-86
2022/01/16 03:31:59;;;;;;;18.15;13.55;;;;;;;13.49;46.18;100517.41;5094356;28;20111;-87
2022/01/16 03:34:25;;;;;;;17.10;15.02;;;;;;;13.47;46.10;100524.44;5095444;28;20051;-88
2022/01/16 03:36:52;;;;;;;16.98;13.43;;;;;;;13.46;46.28;100522.69;5096323;28;20331;-86
2022/01/16 03:39:18;;;;;;;18.88;13.75;;;;;;;13.46;46.03;100512.19;5094219;28;20020;-87
2022/01/16 03:41:44;;;;;;;19.10;14.50;;;;;;;13.48;46.16;100513.06;5095259;28;20030;-87
2022/01/16 03:44:10;;;;;;;18.90;14.38;;;;;;;13.49;45.64;100518.28;5094150;28;20480;-88
2022/01/16 03:46:38;;;;;;;16.48;12.85;;;;;;;13.50;45.98;100506.03;5093918;28;20036;-86
2022/01/16 03:49:11;;;;;;;16.50;12.85;;;;;;;13.52;45.92;100504.28;5094288;28;20059;-86
2022/01/16 03:51:38;;;;;;;16.40;13.88;;;;;;;13.48;45.92;100505.19;5094132;28;20123;-88
2022/01/16 03:54:06;;;;;;;17.02;13.30;;;;;;;13.50;45.88;100513.91;5094081;28;20475;-88
2022/01/16 03:56:32;;;;;;;16.23;13.82;;;;;;;13.51;45.61;100511.25;5094220;28;20449;-87
2022/01/16 03:58:58;;;;;;;16.70;13.68;;;;;;;13.45;45.89;100516.56;5096272;28;20027;-87
2022/01/16 04:01:24;;;;;;;19.00;13.50;;;;;;;13.49;45.89;100501.69;5093985;28;20114;-89
2022/01/16 04:03:51;;;;;;;17.10;13.75;;;;;;;13.47;45.91;100503.47;5096873;28;20027;-87
2022/01/16 04:06:19;;;;;;;17.27;13.80;;;;;;;13.48;45.77;100511.31;5098906;28;20027;-86
2022/01/16 04:08:46;;;;;;;15.57;12.77;;;;;;;13.49;45.82;100513.06;5098127;28;20027;-86
2022/01/16 04:11:12;;;;;;;15.57;12.85;;;;;;;13.46;45.69;100506.94;5098055;28;20028;-87
2022/01/16 04:13:43;;;;;;;16.88;12.50;;;;;;;13.45;45.99;100507.84;5097271;28;20046;-86
2022/01/16 04:16:09;;;;;;;18.80;13.60;;;;;;;13.46;45.85;100514.81;5096919;28;20039;-88
2022/01/16 04:18:35;;;;;;;16.73;13.10;;;;;;;13.47;45.70;100519.19;5097199;28;20090;-88
2022/01/16 04:21:00;;;;;;;16.58;12.75;;;;;;;13.43;45.71;100513.94;5097324;28;20120;-87
2022/01/16 04:23:27;;;;;;;17.20;13.38;;;;;;;13.45;45.84;100505.22;5097070;28;20032;-88
2022/01/16 04:25:52;;;;;;;19.25;13.52;;;;;;;13.38;45.91;100515.75;5101482;28;20024;-88
2022/01/16 04:28:23;;;;;;;16.10;12.93;;;;;;;13.43;45.82;100521.81;5097153;28;20042;-86
2022/01/16 04:30:48;;;;;;;18.02;13.10;;;;;;;13.39;45.77;100522.75;5096527;28;20038;-87
2022/01/16 04:33:14;;;;;;;16.85;13.45;;;;;;;13.45;45.49;100526.19;5097943;28;20349;-87
2022/01/16 04:35:39;;;;;;;16.27;12.63;;;;;;;13.42;45.63;100521.84;5097052;28;20357;-88
2022/01/16 04:38:05;;;;;;;16.08;12.82;;;;;;;13.44;45.55;100527.94;5096951;28;20032;-87
2022/01/16 04:40:40;;;;;;;17.48;13.68;;;;;;;13.44;45.58;100530.56;5096852;28;20028;-87
2022/01/16 04:45:50;;;;;;;15.38;11.95;;;;;;;13.41;45.64;100526.22;5097958;28;20711;-87
2022/01/16 04:48:15;;;;;;;17.55;13.50;;;;;;;13.41;45.51;100531.47;5096298;28;20059;-87
2022/01/16 04:50:41;;;;;;;15.98;12.65;;;;;;;13.39;45.80;100533.25;5096838;28;20040;-88
2022/01/16 04:53:06;;;;;;;15.77;11.68;;;;;;;13.42;45.59;100543.69;5096753;28;20089;-88
2022/01/16 04:55:32;;;;;;;16.75;12.75;;;;;;;13.45;45.57;100540.16;5096758;28;20032;-86
2022/01/16 04:57:58;;;;;;;16.30;12.52;;;;;;;13.47;45.50;100541.03;5096604;28;20024;-86
2022/01/16 05:00:23;;;;;;;15.63;12.00;;;;;;;13.45;45.52;100531.44;5097847;28;20047;-88
2022/01/16 05:02:49;;;;;;;17.38;13.30;;;;;;;13.39;45.74;100538.50;5096667;28;20067;-88
2022/01/16 05:05:14;;;;;;;14.35;11.68;;;;;;;13.36;45.68;100538.50;5099327;28;20052;-87
2022/01/16 05:07:40;;;;;;;16.48;12.13;;;;;;;13.39;45.54;100543.72;5103532;28;20444;-86
2022/01/16 05:10:07;;;;;;;15.52;12.68;;;;;;;13.35;45.79;100536.78;5097955;28;20032;-87
2022/01/16 05:12:35;;;;;;;15.18;11.77;;;;;;;13.34;45.51;100535.06;5096341;28;20105;-89
2022/01/16 05:17:46;;;;;;;14.35;11.07;;;;;;;13.35;45.64;100536.78;5097719;28;20123;-87
2022/01/16 05:20:12;;;;;;;13.77;11.13;;;;;;;13.33;45.92;100540.31;5095913;28;20111;-86
2022/01/16 05:22:38;;;;;;;14.73;11.50;;;;;;;13.28;45.71;100541.22;5095945;28;20020;-87
2022/01/16 05:25:07;;;;;;;13.65;11.35;;;;;;;13.39;45.68;100545.47;5097443;28;20373;-88
2022/01/16 05:27:33;;;;;;;14.80;11.95;;;;;;;13.35;45.79;100549.88;5097004;28;20031;-86
2022/01/16 05:29:58;;;;;;;15.77;11.93;;;;;;;13.38;45.53;100568.19;5096576;28;20123;-87
2022/01/16 05:32:24;;;;;;;14.93;11.95;;;;;;;13.35;45.58;100578.72;5096999;28;20108;-86
2022/01/16 05:34:50;;;;;;;14.38;11.48;;;;;;;13.35;45.64;100589.22;5095918;28;20502;-88
2022/01/16 05:37:16;;;;;;;14.90;11.35;;;;;;;13.36;45.46;100600.59;5095964;28;20040;-87
2022/01/16 05:39:44;;;;;;;13.45;10.70;;;;;;;13.36;45.58;100606.69;5095612;28;20024;-87
2022/01/16 05:42:12;;;;;;;15.07;11.50;;;;;;;13.40;45.50;100597.91;5095668;28;20035;-86
2022/01/16 05:44:38;;;;;;;14.20;10.70;;;;;;;13.35;45.55;100599.69;5095520;28;20457;-88
2022/01/16 05:47:05;;;;;;;16.17;11.32;;;;;;;13.34;45.47;100607.56;5096376;28;20043;-88
2022/01/16 05:49:31;;;;;;;13.30;10.82;;;;;;;13.38;45.58;100610.13;5096555;28;20042;-87
2022/01/16 05:51:56;;;;;;;14.55;11.38;;;;;;;13.34;45.58;100597.09;5095831;28;20040;-87
2022/01/16 05:54:22;;;;;;;15.43;11.70;;;;;;;13.35;45.46;100596.19;5095606;28;20429;-87
2022/01/16 05:56:47;;;;;;;14.35;10.98;;;;;;;13.35;45.38;100599.69;5095196;28;20020;-88
2022/01/16 05:59:13;;;;;;;13.88;10.93;;;;;;;13.33;45.48;100601.47;5095339;28;20051;-86
2022/01/16 06:01:38;;;;;;;15.60;11.98;;;;;;;13.35;45.46;100597.06;5095724;28;20511;-88
2022/01/16 06:04:04;;;;;;;16.13;12.23;;;;;;;13.36;45.28;100606.69;5096361;28;20028;-88
2022/01/16 06:06:30;;;;;;;14.32;11.80;;;;;;;13.29;45.34;100607.63;5095252;28;20056;-87
2022/01/16 06:08:55;;;;;;;15.00;11.63;;;;;;;13.29;45.54;100625.97;5095343;28;20089;-86
2022/01/16 06:11:21;;;;;;;14.90;11.02;;;;;;;13.26;45.33;100629.50;5095693;28;20027;-86
2022/01/16 06:13:46;;;;;;;14.85;11.80;;;;;;;13.31;45.41;100639.94;5096711;28;20028;-88
2022/01/16 06:16:12;;;;;;;15.55;11.07;;;;;;;13.30;45.43;100648.69;5098150;28;20032;-88
2022/01/16 06:18:38;;;;;;;15.30;12.07;;;;;;;13.29;45.37;100657.44;5095340;28;20100;-88
2022/01/16 06:21:03;;;;;;;14.90;11.25;;;;;;;13.35;45.28;100659.13;5095418;28;20028;-88
2022/01/16 06:23:29;;;;;;;14.85;12.13;;;;;;;13.31;45.40;100667.91;5098234;28;20052;-87
2022/01/16 06:25:55;;;;;;;13.88;11.65;;;;;;;13.32;45.27;100667.88;5095092;28;20028;-87
2022/01/16 06:28:23;;;;;;;14.23;11.00;;;;;;;13.31;45.33;100657.44;5094984;28;20421;-89
2022/01/16 06:30:48;;;;;;;14.10;11.73;;;;;;;13.33;45.15;100660.91;5094993;28;20015;-87
2022/01/16 06:33:14;;;;;;;16.08;12.07;;;;;;;13.29;45.22;100660.06;5100265;28;20020;-89
2022/01/16 06:35:39;;;;;;;15.82;11.68;;;;;;;13.26;45.42;100662.69;5095758;28;20453;-89
2022/01/16 06:38:05;;;;;;;14.85;11.00;;;;;;;13.30;45.31;100664.41;5096416;28;20185;-88
2022/01/16 06:40:31;;;;;;;13.80;11.43;;;;;;;13.30;45.29;100669.66;5098229;28;20027;-86
2022/01/16 06:42:56;;;;;;;14.65;11.93;;;;;;;13.28;45.31;100679.31;5094568;28;20369;-87
2022/01/16 06:45:22;;;;;;;15.95;12.18;;;;;;;13.28;45.25;100692.41;5094586;28;20024;-87
2022/01/16 06:47:48;;;;;;;13.45;10.70;;;;;;;13.30;45.16;100674.91;5095254;28;20046;-87
2022/01/16 06:50:14;;;;;;;15.38;11.82;;;;;;;13.32;45.49;100672.28;5094091;28;20028;-87
2022/01/16 06:52:39;;;;;;;14.32;11.40;;;;;;;13.31;45.10;100666.16;5095164;28;20338;-87
2022/01/16 06:55:06;;;;;;;14.88;11.15;;;;;;;13.28;45.16;100671.44;5094319;28;20379;-88
2022/01/16 06:57:31;;;;;;;14.70;12.07;;;;;;;13.27;45.24;100675.78;5094675;28;20024;-87
2022/01/16 06:59:57;;;;;;;15.52;11.40;;;;;;;13.26;45.45;100687.16;5094473;28;20111;-88
2022/01/16 07:02:23;;;;;;;14.85;11.27;;;;;;;13.24;45.34;100682.81;5094200;28;20028;-88
2022/01/16 07:04:48;;;;;;;14.02;9.95;;;;;;;13.21;45.28;100680.25;5094349;28;20024;-87
2022/01/16 07:07:14;;;;;;;13.90;11.05;;;;;;;13.26;45.38;100681.94;5095162;28;20024;-88
2022/01/16 07:09:40;;;;;;;14.18;10.80;;;;;;;13.24;45.36;100686.31;5096060;28;20027;-86
2022/01/16 07:12:06;;;;;;;13.70;11.40;;;;;;;13.26;45.32;100691.53;5096002;28;20032;-89
2022/01/16 07:14:32;;;;;;;13.23;10.82;;;;;;;13.28;45.21;100687.16;5096888;28;20360;-87
2022/01/16 07:16:58;;;;;;;12.38;10.02;;;;;;;13.28;45.38;100692.41;5095077;28;20028;-89
2022/01/16 07:19:23;;;;;;;13.95;11.23;;;;;;;13.28;45.29;100684.53;5094800;28;20032;-88
2022/01/16 07:21:49;;;;;;;13.82;11.32;;;;;;;13.28;45.18;100681.91;5094365;28;20028;-88
2022/01/16 07:24:16;;;;;;;13.80;11.20;;;;;;;13.30;45.28;100690.63;5094309;28;20020;-88
2022/01/16 07:26:45;;;;;;;14.48;10.40;;;;;;;13.28;45.36;100692.41;5095293;28;20032;-89
2022/01/16 07:29:11;;;;;;;13.27;11.10;;;;;;;13.27;45.26;100685.44;5094123;28;20024;-89
2022/01/16 07:31:39;;;;;;;12.85;10.48;;;;;;;13.25;45.39;100684.56;5094439;28;20058;-88
2022/01/16 07:34:06;;;;;;;13.30;10.43;;;;;;;13.25;45.41;100687.19;5094677;28;20093;-89
2022/01/16 07:36:32;;;;;;;14.10;10.95;;;;;;;13.25;45.40;100688.06;5093899;28;20028;-86
2022/01/16 07:38:57;;;;;;;13.43;10.07;;;;;;;13.30;45.20;100695.88;5097496;28;20403;-89
2022/01/16 07:41:23;;;;;;;13.43;10.73;;;;;;;13.29;45.30;100696.75;5098131;28;20028;-88
2022/01/16 07:43:48;;;;;;;12.40;10.23;;;;;;;13.25;45.12;100695.03;5098940;28;20023;-87
2022/01/16 07:46:17;;;;;;;13.35;10.55;;;;;;;13.28;45.23;100689.78;5097910;28;20024;-87
2022/01/16 07:48:42;;;;;;;11.32;9.63;;;;;;;13.27;45.24;100696.78;5101199;28;20082;-88
2022/01/16 07:51:08;;;;;;;11.73;9.25;;;;;;;13.25;45.34;100703.78;5097993;28;20032;-88
2022/01/16 07:53:34;;;;;;;13.23;10.32;;;;;;;13.25;45.28;100702.91;5098166;28;20032;-89
2022/01/16 07:56:00;;;;;;;13.85;10.77;;;;;;;13.25;45.36;100702.91;5097926;28;20035;-87
2022/01/16 07:58:25;;;;;;;14.45;10.45;;;;;;;13.24;45.46;100706.41;5097659;28;20077;-87
2022/01/16 08:00:51;;;;;;;13.45;10.90;;;;;;;13.26;45.16;100702.03;5097645;28;20082;-88
2022/01/16 08:03:16;;;;;;;14.88;10.90;;;;;;;13.19;45.60;100700.34;5097499;28;20047;-88
2022/01/16 08:05:42;;;;;;;12.18;10.32;;;;;;;13.22;45.59;100703.81;5097402;28;20334;-87
2022/01/16 08:08:08;;;;;;;11.15;9.80;;;;;;;13.25;45.29;100700.28;5097701;28;20052;-87
2022/01/16 08:10:33;;;;;;;12.07;9.65;;;;;;;13.22;45.28;100701.19;5098106;28;20377;-86
2022/01/16 08:12:59;;;;;;;13.77;10.38;;;;;;;13.23;45.35;100705.53;5098078;28;20031;-88
2022/01/16 08:15:25;;;;;;;13.55;11.55;;;;;;;13.25;45.29;100708.16;5098890;28;20084;-88
2022/01/16 08:17:51;;;;;;;13.68;10.75;;;;;;;13.25;45.29;100718.63;5098801;28;20024;-88
2022/01/16 08:20:17;;;;;;;13.82;10.75;;;;;;;13.26;45.48;100725.63;5097954;28;20019;-88
2022/01/16 08:22:44;;;;;;;13.43;10.60;;;;;;;13.25;45.36;100723.88;5097795;28;20059;-87
2022/01/16 08:25:11;;;;;;;14.02;11.38;;;;;;;13.25;45.42;100727.38;5099102;28;20365;-89
2022/01/16 08:27:36;;;;;;;13.48;11.15;;;;;;;13.26;45.62;100741.34;5099663;28;20028;-88
2022/01/16 08:30:03;;;;;;;12.90;11.02;;;;;;;13.26;45.49;100736.09;5099637;28;20031;-88
2022/01/16 08:32:29;;;;;;;13.50;10.80;;;;;;;13.29;45.33;100734.34;5099764;28;20110;-88
2022/01/16 08:34:55;;;;;;;15.05;11.10;;;;;;;13.32;45.23;100741.28;5098739;28;20070;-88
2022/01/16 08:37:21;;;;;;;15.13;10.85;;;;;;;13.24;45.42;100744.00;5098691;28;20066;-87
2022/01/16 08:39:46;;;;;;;15.02;10.88;;;;;;;13.26;45.25;100747.47;5098221;28;20035;-88
2022/01/16 08:42:12;;;;;;;12.32;10.15;;;;;;;13.25;45.35;100755.34;5100665;28;20106;-88
2022/01/16 08:44:38;;;;;;;13.73;10.02;;;;;;;13.29;45.22;100762.31;5098700;28;20044;-89
2022/01/16 08:47:06;;;;;;;12.40;10.73;;;;;;;13.28;45.51;100760.56;5097996;28;20040;-87
2022/01/16 08:49:32;;;;;;;13.70;11.10;;;;;;;13.25;45.69;100763.19;5097181;28;20034;-89
2022/01/16 08:51:58;;;;;;;13.07;10.35;;;;;;;13.31;45.35;100759.69;5097939;28;20038;-87
2022/01/16 08:54:24;;;;;;;13.45;11.15;;;;;;;13.33;45.48;100760.53;5100179;28;20048;-88
2022/01/16 08:56:49;;;;;;;13.85;11.05;;;;;;;13.27;45.64;100764.06;5100167;28;20032;-87
2022/01/16 08:59:15;;;;;;;14.00;11.20;;;;;;;13.30;45.55;100764.03;5101252;28;20031;-89
2022/01/16 09:01:40;;;;;;;14.98;11.18;;;;;;;13.30;45.69;100774.53;5099696;28;20119;-88
2022/01/16 09:04:06;;;;;;;14.43;11.77;;;;;;;13.36;45.67;100776.25;5101225;28;20024;-88
2022/01/16 09:06:32;;;;;;;13.77;11.00;;;;;;;13.36;45.50;100774.47;5105753;28;20024;-88
2022/01/16 09:08:58;;;;;;;14.77;11.25;;;;;;;13.35;45.54;100777.97;5109059;28;20027;-87
2022/01/16 09:11:25;;;;;;;14.02;11.43;;;;;;;13.37;45.69;100791.94;5099835;28;20035;-88
2022/01/16 09:13:52;;;;;;;13.18;11.57;;;;;;;13.36;45.67;100800.69;5096730;28;20035;-86
2022/01/16 09:16:19;;;;;;;12.98;11.02;;;;;;;13.33;45.86;100800.72;5096180;28;20120;-87
2022/01/16 09:18:45;;;;;;;13.90;11.43;;;;;;;13.38;45.62;100812.03;5096130;28;20024;-87
2022/01/16 09:21:11;;;;;;;13.05;10.55;;;;;;;13.39;45.81;100808.56;5096276;28;20326;-87
2022/01/16 09:23:38;;;;;;;13.20;11.00;;;;;;;13.41;45.45;100812.03;5096310;28;20458;-87
2022/01/16 09:26:04;;;;;;;14.60;11.38;;;;;;;13.42;45.64;100816.38;5096213;28;20043;-86
2022/01/16 09:28:29;;;;;;;15.27;11.70;;;;;;;13.39;45.51;100813.78;5096424;28;20039;-87
2022/01/16 09:30:55;;;;;;;14.75;12.02;;;;;;;13.40;45.62;100812.91;5096281;28;20028;-88
2022/01/16 09:33:21;;;;;;;14.20;11.43;;;;;;;13.41;45.59;100814.63;5097897;28;20032;-88
2022/01/16 09:35:47;;;;;;;13.48;11.68;;;;;;;13.43;45.55;100818.13;5097969;28;20499;-87
2022/01/16 09:38:12;;;;;;;14.40;11.45;;;;;;;13.39;45.80;100823.41;5096492;28;20123;-87
2022/01/16 09:40:38;;;;;;;14.27;11.35;;;;;;;13.40;45.67;100826.03;5097931;28;20063;-87
2022/01/16 09:43:04;;;;;;;13.93;11.00;;;;;;;13.47;45.62;100828.63;5096798;28;20361;-87
2022/01/16 09:45:30;;;;;;;15.10;12.50;;;;;;;13.45;45.66;100825.13;5097171;28;20059;-87
2022/01/16 09:47:56;;;;;;;13.75;11.27;;;;;;;13.46;45.67;100826.84;5095636;28;20052;-88
2022/01/16 09:50:25;;;;;;;14.73;11.70;;;;;;;13.47;45.64;100829.47;5097102;28;20039;-87
2022/01/16 09:52:53;;;;;;;13.57;11.10;;;;;;;13.46;45.71;100827.75;5097041;28;20032;-87
2022/01/16 09:55:22;;;;;;;15.00;12.15;;;;;;;13.48;45.70;100830.34;5097384;28;20102;-86
2022/01/16 09:57:50;;;;;;;14.82;12.23;;;;;;;13.48;45.77;100832.97;5095702;28;20024;-87
2022/01/16 10:00:20;;;;;;;14.52;11.27;;;;;;;13.50;45.83;100836.44;5095378;28;20081;-87
2022/01/16 10:02:46;;;;;;;14.63;12.00;;;;;;;13.47;45.77;100839.13;5095773;28;20481;-88
2022/01/16 10:05:39;;;;;;;15.52;11.93;;;;;;;13.50;45.83;100836.44;5095716;28;20028;-87
2022/01/16 10:08:08;;;;;;;15.45;12.18;;;;;;;13.48;45.77;100840.84;5095857;28;20039;-89
2022/01/16 10:10:38;;;;;;;15.05;12.18;;;;;;;13.48;45.85;100843.47;5095578;28;20088;-87
2022/01/16 10:13:24;;;;;;;15.00;11.48;;;;;;;13.53;45.76;100841.69;5096030;28;20445;-86
2022/01/16 10:15:57;;;;;;;16.20;12.30;;;;;;;13.50;46.02;100839.06;5096604;28;20357;-88
2022/01/16 10:18:39;;;;;;;13.50;11.38;;;;;;;13.52;45.73;100837.34;5097379;28;20441;-87
2022/01/16 10:21:06;;;;;;;14.35;12.63;;;;;;;13.50;45.90;100839.06;5096629;28;20024;-88
2022/01/16 10:23:41;;;;;;;14.73;12.27;;;;;;;13.53;45.76;100834.72;5096552;28;20028;-88
2022/01/16 10:26:21;;;;;;;14.85;12.23;;;;;;;13.54;45.81;100848.66;5096471;28;20036;-87
2022/01/16 10:28:47;;;;;;;14.98;11.93;;;;;;;13.55;45.64;100847.78;5097694;28;20024;-87
2022/01/16 10:31:26;;;;;;;14.60;12.48;;;;;;;13.59;45.78;100860.00;5096913;28;20453;-87
2022/01/16 10:33:55;;;;;;;16.17;12.48;;;;;;;13.58;45.78;100852.13;5096215;28;20479;-86
2022/01/16 10:36:39;;;;;;;15.55;12.48;;;;;;;13.62;45.81;100856.47;5095990;28;20043;-88
2022/01/16 10:39:09;;;;;;;13.75;11.45;;;;;;;13.61;45.77;100852.97;5096043;28;20028;-87
2022/01/16 10:41:34;;;;;;;14.85;12.15;;;;;;;13.59;45.85;100849.50;5095909;28;20039;-86
2022/01/16 10:44:00;;;;;;;14.38;12.23;;;;;;;13.57;45.75;100856.53;5097514;28;20031;-86
2022/01/16 10:46:26;;;;;;;15.48;11.82;;;;;;;13.61;45.81;100846.88;5095934;28;20036;-87
2022/01/16 10:49:15;;;;;;;14.80;12.27;;;;;;;13.66;45.81;100850.34;5096122;28;20048;-85
2022/01/16 10:51:41;;;;;;;15.32;12.02;;;;;;;13.60;45.78;100850.38;5095651;28;20028;-86
2022/01/16 10:54:31;;;;;;;14.48;12.10;;;;;;;13.64;45.86;100852.97;5096003;28;20471;-87
2022/01/16 10:56:57;;;;;;;14.30;12.00;;;;;;;13.66;45.91;100843.31;5096408;28;20081;-87
2022/01/16 10:59:24;;;;;;;14.75;12.15;;;;;;;13.67;45.81;100847.69;5095701;28;20027;-86
2022/01/16 11:02:09;;;;;;;15.15;11.07;;;;;;;13.66;45.72;100847.72;5096315;28;20024;-87
2022/01/16 11:04:34;;;;;;;16.33;12.40;;;;;;;13.68;45.69;100848.56;5095743;28;20057;-88
2022/01/16 11:07:05;;;;;;;13.52;11.10;;;;;;;13.68;45.82;100844.19;5095597;28;20023;-88
2022/01/16 11:09:32;;;;;;;14.00;10.80;;;;;;;13.68;45.86;100844.19;5095560;28;20088;-87
2022/01/16 11:12:01;;;;;;;13.68;10.88;;;;;;;13.71;45.91;100858.16;5095833;28;20036;-88
2022/01/16 11:14:29;;;;;;;14.05;11.93;;;;;;;13.74;45.80;100852.88;5096377;28;20051;-86
2022/01/16 11:16:58;;;;;;;12.85;10.70;;;;;;;13.71;45.85;100847.66;5096377;28;20035;-88
2022/01/16 11:19:26;;;;;;;13.68;10.30;;;;;;;13.69;46.02;100838.06;5095396;28;20034;-88
2022/01/16 11:21:56;;;;;;;14.18;11.15;;;;;;;13.71;45.85;100842.44;5095408;28;20383;-85
2022/01/16 11:27:01;;;;;;;13.80;11.25;;;;;;;13.75;45.73;100833.66;5095927;28;20032;-87
2022/01/16 11:29:30;;;;;;;14.52;11.07;;;;;;;13.74;45.83;100829.25;5096356;28;20032;-87
2022/01/16 11:31:58;;;;;;;13.30;9.93;;;;;;;13.67;45.90;100826.69;5096159;28;20426;-87
2022/01/16 11:34:24;;;;;;;14.20;10.32;;;;;;;13.69;46.01;100822.31;5097427;28;20066;-86
2022/01/16 11:36:51;;;;;;;12.98;10.15;;;;;;;13.76;46.11;100832.75;5098980;28;20028;-85
2022/01/16 11:39:16;;;;;;;13.13;10.07;;;;;;;13.77;45.89;100831.88;5098089;28;20066;-87
2022/01/16 11:41:52;;;;;;;14.07;10.65;;;;;;;13.76;45.75;100827.53;5095607;28;20024;-85
2022/01/16 11:44:24;;;;;;;14.00;10.98;;;;;;;13.77;46.10;100824.00;5095625;28;20039;-87
2022/01/16 11:46:52;;;;;;;14.48;10.13;;;;;;;13.79;46.16;100827.47;5096324;28;20377;-87
2022/01/16 11:49:31;;;;;;;12.38;9.95;;;;;;;13.78;45.85;100817.88;5096666;28;20032;-87
2022/01/16 11:52:03;;;;;;;10.77;9.65;;;;;;;13.78;45.93;100818.75;5095647;28;20024;-84